Latest Weather Observations for Ouse

IDT60801

Issued at 8:05 pm EST Wednesday 23 April 2014 (issued every 30 minutes, with the page automatically refreshed every 10 minutes)

About weather observations | Map of weather stations | Latest weather observations for TAS | Other Formats
Station Details ID: 095048 Name: OUSE FIRE STATION Lat: -42.48 Lon: 146.71 Height: 90.0 m
Data from the previous 72 hours. | See also: Recent months at Ouse
Date/Time
EST
Temp
°C
App
Temp
°C
Dew
Point
Rel
Hum
%
Delta-T
°C
Wind Press
QNH
hPa
Press
MSL
hPa
Rain
since 9 am
mm
Dir
 
Spd
km/h
Gust
km/h
Spd
kts
Gust
kts
23/08:00pm 7.2 4.8 5.3 88 0.8 N 7 11 4 6 1007.4 - 0.0
23/07:30pm 8.0 5.0 6.0 87 0.9 N 11 15 6 8 1007.7 - 0.0
23/07:00pm 8.3 5.7 5.9 85 1.1 N 9 13 5 7 1007.8 - 0.0
23/06:30pm 9.5 6.5 6.2 80 1.5 N 11 13 6 7 1007.8 - 0.0
23/06:00pm 9.8 7.2 6.3 79 1.6 N 9 15 5 8 1007.8 1007.8 0.0
23/05:30pm 11.2 9.1 6.5 73 2.2 N 7 11 4 6 1008.0 - 0.0
23/05:00pm 14.0 12.0 7.1 63 3.4 NNW 7 11 4 6 1008.1 - 0.0
23/04:30pm 14.5 12.0 6.6 59 3.8 NNW 9 13 5 7 1008.3 - 0.0
23/04:00pm 15.8 12.7 5.7 51 4.9 N 11 19 6 10 1008.6 - 0.0
23/03:30pm 15.5 11.9 4.8 49 5.0 N 13 20 7 11 1008.8 - 0.0
23/03:00pm 15.6 10.8 4.6 48 5.2 NNW 19 30 10 16 1009.1 1009.1 0.0
23/02:30pm 16.0 10.9 4.1 45 5.6 NNW 20 30 11 16 1009.4 - 0.0
23/02:00pm 16.0 12.3 6.4 53 4.7 NW 15 22 8 12 1009.9 - 0.0
23/01:30pm 15.8 12.6 6.8 55 4.4 NW 13 20 7 11 1010.4 - 0.0
23/01:00pm 15.5 12.0 7.0 57 4.2 WNW 15 22 8 12 1010.8 - 0.0
23/12:30pm 15.8 11.5 6.8 55 4.4 WNW 19 26 10 14 1011.1 - 0.0
23/12:00pm 15.5 12.7 6.8 56 4.3 NW 11 17 6 9 1011.5 1011.5 0.0
23/11:30am 15.6 12.0 6.9 56 4.3 WNW 15 22 8 12 1011.8 - 0.0
23/11:00am 15.5 12.3 6.8 56 4.3 NW 13 19 7 10 1012.1 - 0.0
23/10:30am 14.4 11.5 6.7 60 3.7 N 11 19 6 10 1012.6 - 0.0
23/10:00am 14.1 11.2 6.7 61 3.6 N 11 15 6 8 1013.0 - 0.0
23/09:30am 13.4 11.2 7.8 69 2.8 N 9 13 5 7 1013.5 - 0.0
23/09:00am 12.1 10.1 8.6 79 1.7 NNE 9 13 5 7 1013.8 1013.9 0.0
23/08:30am 10.0 8.4 8.1 88 0.9 N 6 9 3 5 1014.0 - 0.0
23/08:00am 8.8 8.3 8.0 95 0.4 CALM 0 0 0 0 1014.2 - 0.0
23/07:30am 8.2 7.6 7.6 96 0.3 CALM 0 0 0 0 1014.0 - 0.0
23/07:00am 8.1 6.3 7.2 94 0.4 NW 6 7 3 4 1013.9 - 0.0
23/06:30am 8.0 6.0 6.9 93 0.5 N 7 9 4 5 1013.8 - 0.0
23/06:00am 8.7 5.7 7.5 92 0.6 N 13 19 7 10 1013.9 1014.0 0.0
23/05:30am 8.3 5.5 7.1 92 0.6 N 11 15 6 8 1013.8 - 0.0
23/05:00am 9.4 6.5 8.2 92 0.6 N 13 17 7 9 1013.9 - 0.0
23/04:30am 9.1 6.9 7.7 91 0.7 NNW 9 13 5 7 1013.9 - 0.0
23/04:00am 9.3 7.0 7.4 88 0.9 NNW 9 15 5 8 1013.7 - 0.0
23/03:30am 8.7 6.7 7.3 91 0.7 N 7 11 4 6 1013.6 - 0.0
23/03:00am 8.7 6.3 6.8 88 0.9 NNW 9 11 5 6 1013.5 1013.6 0.0
23/02:30am 8.8 5.5 6.6 86 1.0 NW 13 15 7 8 1013.5 - 0.0
23/02:00am 8.0 4.9 5.6 85 1.1 N 11 15 6 8 1013.7 - 0.0
23/01:30am 6.6 3.5 5.4 92 0.5 NNE 11 13 6 7 1013.5 - 0.0
23/01:00am 6.9 3.5 5.7 92 0.5 NNW 13 15 7 8 1013.6 - 0.0
23/12:30am 6.4 2.7 4.7 89 0.7 N 13 19 7 10 1013.6 - 0.0
23/12:00am 7.6 4.5 5.7 88 0.9 N 11 13 6 7 1013.7 1013.8 0.0
 
Date/Time
EST
Temp
°C
App
Temp
°C
Dew
Point
Rel
Hum
%
Delta-T
°C
Wind Press
QNH
hPa
Press
MSL
hPa
Rain
since 9 am
mm
Dir
 
Spd
km/h
Gust
km/h
Spd
kts
Gust
kts
22/11:30pm 7.9 5.3 6.2 89 0.8 N 9 11 5 6 1013.7 - 0.0
22/11:00pm 7.7 5.1 6.0 89 0.8 N 9 13 5 7 1013.8 - 0.0
22/10:30pm 7.9 5.6 5.5 85 1.1 N 7 13 4 7 1013.7 - 0.0
22/10:00pm 9.3 6.4 6.4 82 1.3 N 11 20 6 11 1013.5 - 0.0
22/09:30pm 10.4 7.1 6.4 76 1.9 NNW 13 20 7 11 1013.3 - 0.0
22/09:00pm 11.7 7.6 6.4 70 2.5 NNW 17 24 9 13 1012.9 1013.0 0.0
22/08:30pm 12.1 9.0 7.2 72 2.4 NNW 13 22 7 12 1012.4 - 0.0
22/08:00pm 12.7 9.2 7.0 68 2.8 NW 15 30 8 16 1012.1 - 0.0
22/07:30pm 12.8 8.9 7.3 69 2.7 NNW 17 30 9 16 1012.0 - 0.0
22/07:00pm 13.0 9.1 7.0 67 2.9 NW 17 28 9 15 1011.6 - 0.0
22/06:30pm 13.4 9.7 6.3 62 3.4 NW 15 32 8 17 1011.2 - 0.0
22/06:00pm 13.3 9.5 5.9 61 3.5 NW 15 26 8 14 1010.6 1010.6 0.0
22/05:30pm 13.6 9.0 5.7 59 3.7 NNW 19 32 10 17 1010.3 - 0.0
22/05:00pm 13.8 9.1 5.2 56 4.0 NW 19 30 10 16 1009.9 - 0.0
22/04:30pm 14.7 10.0 5.2 53 4.5 W 19 33 10 18 1009.9 - 0.0
22/04:00pm 14.9 9.2 4.9 51 4.7 WNW 24 35 13 19 1009.6 - 0.0
22/03:30pm 15.8 11.0 5.7 51 4.9 W 20 35 11 19 1009.5 - 0.0
22/03:06pm 15.2 8.8 5.1 51 4.8 WNW 28 46 15 25 1009.5 - 0.0
22/03:00pm 14.8 9.2 5.3 53 4.5 W 24 41 13 22 1009.5 1009.5 0.0
22/02:34pm 15.1 8.8 5.6 53 4.5 W 28 48 15 26 1009.5 - 0.0
22/02:30pm 14.6 8.6 5.1 53 4.5 W 26 48 14 26 1009.4 - 0.0
22/02:00pm 14.8 8.9 5.9 55 4.3 W 26 39 14 21 1009.3 - 0.0
22/01:43pm 14.7 8.5 6.0 56 4.2 WNW 28 50 15 27 1009.3 - 0.0
22/01:30pm 14.6 8.2 5.4 54 4.4 W 28 44 15 24 1009.1 - 0.0
22/01:00pm 16.6 11.7 8.3 58 4.2 WSW 24 37 13 20 1008.7 - 0.0
22/12:30pm 17.3 12.6 9.2 59 4.2 WNW 24 37 13 20 1008.1 - 0.0
22/12:00pm 17.4 12.2 8.8 57 4.5 W 26 44 14 24 1007.8 1007.8 0.0
22/11:30am 16.4 13.1 11.6 73 2.6 NW 20 32 11 17 1007.6 - 0.0
22/11:00am 16.9 13.3 10.7 67 3.3 NW 20 44 11 24 1007.2 - 0.0
22/10:30am 16.5 13.4 10.4 67 3.2 NNW 17 28 9 15 1006.7 - 0.0
22/10:00am 14.7 13.6 12.0 84 1.5 WNW 9 19 5 10 1006.5 - 0.0
22/09:30am 11.9 - 12.1 - - NNW 6 11 3 6 1006.6 - 0.0
22/09:00am 9.6 - 9.7 - - N 7 11 4 6 1006.1 1006.1 6.4
22/08:30am 7.4 5.5 7.4 100 0.0 N 7 9 4 5 1005.9 - 6.4
22/08:00am 5.7 4.7 5.7 100 0.0 CALM 0 6 0 3 1005.7 - 6.4
22/07:30am 4.8 2.9 4.8 100 0.0 NNW 4 9 2 5 1005.4 - 6.4
22/07:00am 4.5 3.3 4.5 100 0.0 CALM 0 0 0 0 1004.9 - 6.4
22/06:30am 4.4 2.0 4.4 100 0.0 SSE 6 9 3 5 1004.8 - 6.4
22/06:00am 4.3 1.7 4.3 100 0.0 N 7 13 4 7 1004.6 1004.7 6.4
22/05:30am 4.3 2.3 4.3 100 0.0 S 4 7 2 4 1004.4 - 6.4
22/05:00am 4.5 2.1 4.5 100 0.0 ESE 6 9 3 5 1004.2 - 6.4
22/04:30am 4.5 2.1 4.5 100 0.0 N 6 9 3 5 1004.0 - 6.4
22/04:00am 4.9 3.8 4.9 100 0.0 CALM 0 6 0 3 1003.8 - 6.4
22/03:30am 4.8 3.3 4.8 100 0.0 NW 2 6 1 3 1003.6 - 6.4
22/03:00am 5.3 2.9 5.3 100 0.0 NW 7 11 4 6 1003.6 1003.7 6.4
22/02:30am 5.6 2.9 5.6 100 0.0 NNW 9 13 5 7 1004.0 - 6.4
22/02:00am 5.8 4.5 5.8 100 0.0 W 2 7 1 4 1004.4 - 6.4
22/01:30am 6.2 5.3 6.2 100 0.0 CALM 0 6 0 3 1004.8 - 6.4
22/01:00am 7.1 6.4 7.1 100 0.0 CALM 0 0 0 0 1005.3 - 6.2
22/12:30am 7.3 5.9 7.3 100 0.0 NW 4 9 2 5 1005.9 - 6.2
22/12:00am 7.4 6.8 7.4 100 0.0 CALM 0 0 0 0 1006.6 1006.6 6.2
 
Date/Time
EST
Temp
°C
App
Temp
°C
Dew
Point
Rel
Hum
%
Delta-T
°C
Wind Press
QNH
hPa
Press
MSL
hPa
Rain
since 9 am
mm
Dir
 
Spd
km/h
Gust
km/h
Spd
kts
Gust
kts
21/11:30pm 7.5 6.9 7.5 100 0.0 CALM 0 0 0 0 1007.5 - 6.2
21/11:00pm 7.5 6.9 7.5 100 0.0 CALM 0 0 0 0 1008.3 - 6.2
21/10:30pm 7.5 6.9 7.5 100 0.0 CALM 0 0 0 0 1009.0 - 6.2
21/10:00pm 7.6 7.0 7.6 100 0.0 CALM 0 0 0 0 1009.3 - 6.2
21/09:30pm 7.7 6.4 7.7 100 0.0 W 4 9 2 5 1010.7 - 4.6
21/09:00pm 7.7 7.1 7.6 99 0.0 CALM 0 0 0 0 1010.6 1010.6 4.2
21/08:30pm 7.7 7.2 7.7 100 0.0 CALM 0 0 0 0 1010.8 - 4.0
21/08:00pm 7.7 7.1 7.6 99 0.0 CALM 0 0 0 0 1011.1 - 3.4
21/07:30pm 7.8 7.2 7.5 98 0.1 CALM 0 0 0 0 1011.6 - 2.6
21/07:00pm 7.9 7.3 7.3 96 0.3 CALM 0 0 0 0 1011.6 - 1.8
21/06:30pm 8.3 7.0 7.7 96 0.3 NW 4 9 2 5 1012.1 - 1.2
21/06:00pm 8.5 6.6 7.7 95 0.4 NW 7 9 4 5 1012.4 1012.4 0.6
21/05:30pm 9.0 8.3 7.1 88 0.9 CALM 0 0 0 0 1012.1 - 0.4
21/05:00pm 9.4 7.6 7.3 87 1.0 ENE 6 9 3 5 1012.8 - 0.2
21/04:30pm 10.3 8.3 6.1 75 2.0 ENE 6 6 3 3 1012.9 - 0.0
21/04:00pm 10.6 9.6 5.4 70 2.4 CALM 0 2 0 1 1013.2 - 0.0
21/03:30pm 10.8 9.3 4.9 67 2.7 E 2 7 1 4 1013.6 - 0.0
21/03:00pm 11.0 9.7 4.0 62 3.1 CALM 0 0 0 0 1013.6 1013.7 0.0
21/02:30pm 10.7 9.3 3.5 61 3.2 CALM 0 0 0 0 1014.0 - 0.0
21/02:00pm 10.7 8.2 4.0 63 3.0 E 6 7 3 4 1014.4 - 0.0
21/01:30pm 10.4 9.0 3.7 63 3.0 CALM 0 0 0 0 1014.8 - 0.0
21/01:00pm 10.4 7.7 3.7 63 3.0 E 7 11 4 6 1015.3 - 0.0
21/12:30pm 10.5 8.0 4.0 64 2.9 ESE 6 7 3 4 1015.8 - 0.0
21/12:00pm 10.2 8.2 4.4 67 2.6 E 4 6 2 3 1016.4 1016.5 0.0
21/11:30am 9.1 7.7 3.5 68 2.4 CALM 0 0 0 0 1017.1 - 0.0
21/11:00am 8.0 6.6 3.5 73 1.9 CALM 0 4 0 2 1017.6 - 0.0
21/10:30am 7.8 5.4 4.2 78 1.6 SE 6 9 3 5 1018.0 - 0.0
21/10:00am 7.2 5.0 3.6 78 1.5 ESE 4 7 2 4 1018.3 - 0.0
21/09:30am 5.0 2.9 3.7 91 0.5 SE 4 6 2 3 1019.0 - 0.0
21/09:00am 4.6 3.4 4.6 100 0.0 CALM 0 6 0 3 1019.3 1019.3 0.4
21/08:30am 2.4 0.8 2.4 100 0.0 CALM 0 0 0 0 1019.2 - 0.4
21/08:00am 1.4 -0.4 1.4 100 0.0 CALM 0 0 0 0 1019.3 - 0.4
21/07:30am 1.0 -0.8 1.0 100 0.0 CALM 0 0 0 0 1018.9 - 0.4
21/07:00am 1.0 -0.8 1.0 100 0.0 CALM 0 0 0 0 1018.7 - 0.4
21/06:30am 0.6 -2.6 0.6 100 0.0 SE 7 9 4 5 1018.6 - 0.4
21/06:00am 0.5 -1.4 0.5 100 0.0 CALM 0 4 0 2 1018.3 1018.3 0.4
21/05:30am 0.4 -2.9 0.4 100 0.0 NNW 7 9 4 5 1018.0 - 0.4
21/05:00am 0.6 -2.6 0.6 100 0.0 N 7 11 4 6 1017.8 - 0.4
21/04:30am 0.1 -3.6 -0.3 97 0.1 N 9 13 5 7 1017.6 - 0.4
21/04:00am 0.7 -2.4 0.4 98 0.1 N 6 7 3 4 1017.3 - 0.4
21/03:30am 1.0 -2.1 0.4 96 0.2 N 6 7 3 4 1017.3 - 0.4
21/03:00am 1.6 -1.5 1.2 97 0.2 NNE 7 9 4 5 1017.2 1017.2 0.4
21/02:30am 2.2 -0.3 1.5 95 0.3 SSW 4 6 2 3 1017.2 - 0.4
21/02:00am 2.9 -0.1 2.0 94 0.4 N 7 9 4 5 1017.1 - 0.4
21/01:30am 4.1 1.5 3.1 93 0.4 N 6 9 3 5 1017.1 - 0.4
21/01:00am 5.0 2.3 3.5 90 0.6 NNW 7 9 4 5 1016.8 - 0.4
21/12:30am 5.0 3.2 3.5 90 0.6 N 2 7 1 4 1016.5 - 0.4
21/12:00am 5.5 2.8 3.7 88 0.8 N 7 11 4 6 1016.2 1016.3 0.4
 
Date/Time
EST
Temp
°C
App
Temp
°C
Dew
Point
Rel
Hum
%
Delta-T
°C
Wind Press
QNH
hPa
Press
MSL
hPa
Rain
since 9 am
mm
Dir
 
Spd
km/h
Gust
km/h
Spd
kts
Gust
kts
20/11:30pm 5.4 2.3 3.4 87 0.8 N 9 11 5 6 1016.0 - 0.4
20/11:00pm 7.0 4.0 4.0 81 1.3 N 9 11 5 6 1015.9 - 0.4
20/10:30pm 8.0 5.1 4.4 78 1.6 WNW 9 13 5 7 1015.8 - 0.4
20/10:00pm 8.1 5.6 3.8 74 1.9 NW 6 7 3 4 1015.6 - 0.4
20/09:30pm 9.6 6.4 3.1 64 2.8 WNW 9 17 5 9 1015.3 - 0.4
20/09:00pm 9.8 6.0 3.8 66 2.6 WNW 13 20 7 11 1014.8 1014.9 0.4
20/08:30pm 10.0 6.7 4.4 68 2.5 WNW 11 17 6 9 1014.4 - 0.4

Other Formats:

Comma delimited format used in spreadsheet applications
http://www.bom.gov.au/fwo/IDT60801/IDT60801.94957.axf

JavaScript Object Notation format (JSON) in row-major order
http://www.bom.gov.au/fwo/IDT60801/IDT60801.94957.json